createdAt,value
2022-08-01T00:00:00.098Z,21.3
2022-08-01T00:10:00.115Z,21.3
2022-08-01T00:20:00.150Z,20.8
2022-08-01T00:30:10.543Z,20.8
2022-08-01T00:40:00.149Z,20.6
2022-08-01T00:50:00.111Z,20.6
2022-08-01T01:00:00.073Z,20.4
2022-08-01T01:10:00.991Z,20.1
2022-08-01T01:20:00.120Z,20.1
2022-08-01T01:30:01.071Z,20.2
2022-08-01T01:40:00.233Z,20.3
2022-08-01T01:50:00.098Z,20.4
2022-08-01T02:00:00.099Z,20.0
2022-08-01T02:10:00.974Z,19.8
2022-08-01T02:20:00.161Z,19.6
2022-08-01T02:30:00.101Z,19.5
2022-08-01T02:40:00.140Z,19.4
2022-08-01T02:50:00.112Z,19.4
2022-08-01T03:00:00.098Z,19.6
2022-08-01T03:10:00.123Z,19.6
2022-08-01T03:20:00.108Z,19.5
2022-08-01T03:30:00.112Z,19.3
2022-08-01T03:40:00.156Z,19.4
2022-08-01T03:50:00.100Z,19.5
2022-08-01T04:00:00.113Z,19.4
2022-08-01T04:10:00.156Z,19.5
2022-08-01T04:20:00.147Z,19.5
2022-08-01T04:30:00.129Z,19.4
2022-08-01T04:40:01.215Z,19.2
2022-08-01T04:50:00.121Z,19.5
2022-08-01T05:00:00.122Z,19.2
2022-08-01T05:10:00.346Z,19.2
2022-08-01T05:20:00.126Z,19.1
2022-08-01T05:30:00.105Z,19.3
2022-08-01T05:40:01.473Z,19.4
2022-08-01T05:50:00.123Z,19.8
2022-08-01T06:00:00.120Z,19.7
2022-08-01T06:10:00.104Z,19.9
2022-08-01T06:20:00.134Z,20.0
2022-08-01T06:30:01.273Z,19.4
2022-08-01T06:40:01.182Z,19.2
2022-08-01T06:50:00.141Z,19.4
2022-08-01T07:00:00.120Z,19.5
2022-08-01T07:10:00.105Z,20.1
2022-08-01T07:20:00.109Z,20.1
2022-08-01T07:30:00.202Z,20.1
2022-08-01T07:40:00.170Z,20.0
2022-08-01T07:50:00.088Z,20.4
2022-08-01T08:00:00.129Z,20.5
2022-08-01T08:10:00.090Z,20.4
2022-08-01T08:20:00.088Z,20.2
2022-08-01T08:30:00.136Z,20.2
2022-08-01T08:40:00.802Z,20.8
2022-08-01T08:50:00.089Z,21.1
2022-08-01T09:00:00.117Z,21.5
2022-08-01T09:10:00.134Z,21.8
2022-08-01T09:20:00.127Z,21.4
2022-08-01T09:30:00.898Z,21.5
2022-08-01T09:40:00.122Z,21.6
2022-08-01T09:50:00.290Z,21.5
2022-08-01T10:00:01.198Z,21.4
2022-08-01T10:10:00.097Z,21.4
2022-08-01T10:20:00.119Z,21.5
2022-08-01T10:30:05.241Z,21.6
2022-08-01T10:40:27.570Z,21.5
2022-08-01T10:50:00.110Z,21.4
2022-08-01T11:00:01.330Z,21.5
2022-08-01T11:10:00.101Z,22.0
2022-08-01T11:20:01.282Z,21.8
2022-08-01T11:30:00.101Z,22.0
2022-08-01T11:40:00.096Z,21.5
2022-08-01T11:50:01.666Z,20.9
2022-08-01T12:00:03.081Z,21.2
2022-08-01T12:10:00.123Z,21.9
2022-08-01T12:20:00.136Z,23.2
2022-08-01T12:30:00.113Z,23.0
2022-08-01T12:40:00.091Z,23.6
2022-08-01T12:50:00.138Z,23.8
2022-08-01T13:00:00.129Z,23.8
2022-08-01T13:10:00.137Z,26.0
2022-08-01T13:20:01.033Z,23.4
2022-08-01T13:30:00.121Z,23.0
2022-08-01T13:40:00.151Z,23.6
2022-08-01T13:50:00.223Z,25.0
2022-08-01T14:00:00.119Z,23.8
2022-08-01T14:10:17.658Z,24.0
2022-08-01T14:20:00.108Z,26.1
2022-08-01T14:30:03.438Z,25.5
2022-08-01T14:40:00.141Z,26.4
2022-08-01T14:50:00.126Z,26.9
2022-08-01T15:00:00.254Z,26.4
2022-08-01T15:10:00.184Z,24.5
2022-08-01T15:20:00.116Z,23.2
2022-08-01T15:30:00.145Z,23.2
2022-08-01T15:40:00.161Z,25.0
2022-08-01T15:50:00.128Z,26.1
2022-08-01T16:00:00.094Z,25.9
2022-08-01T16:10:00.145Z,26.6
2022-08-01T16:20:00.082Z,25.1
2022-08-01T16:30:00.105Z,24.4
2022-08-01T16:40:01.114Z,24.1
2022-08-01T16:50:00.090Z,24.3
2022-08-01T17:00:00.110Z,24.3
2022-08-01T17:10:00.126Z,24.6
2022-08-01T17:20:00.105Z,23.8
2022-08-01T17:30:01.248Z,23.6
2022-08-01T17:40:01.556Z,23.4
2022-08-01T17:50:00.170Z,23.2
2022-08-01T18:00:00.140Z,23.1
2022-08-01T18:10:00.141Z,23.1
2022-08-01T18:20:00.114Z,23.0
2022-08-01T18:30:00.117Z,22.9
2022-08-01T18:40:00.147Z,22.7
2022-08-01T18:50:00.156Z,22.6
2022-08-01T19:00:00.140Z,22.5
2022-08-01T19:10:00.129Z,22.4
2022-08-01T19:20:02.984Z,22.4
2022-08-01T19:30:00.136Z,22.4
2022-08-01T19:40:00.147Z,22.4
2022-08-01T19:50:00.131Z,22.1
2022-08-01T20:00:00.168Z,21.8
2022-08-01T20:10:00.120Z,21.8
2022-08-01T20:20:00.310Z,22.0
2022-08-01T20:30:00.108Z,21.8
2022-08-01T20:40:00.122Z,21.6
2022-08-01T20:50:00.151Z,21.2
2022-08-01T21:00:00.111Z,21.1
2022-08-01T21:10:00.148Z,21.0
2022-08-01T21:20:00.123Z,20.8
2022-08-01T21:30:00.138Z,20.6
2022-08-01T21:40:00.168Z,20.5
2022-08-01T21:50:00.095Z,20.8
2022-08-01T22:00:00.135Z,20.7
2022-08-01T22:10:00.130Z,20.6
2022-08-01T22:20:00.107Z,20.2
2022-08-01T22:30:00.112Z,20.2
2022-08-01T22:40:00.128Z,19.9
2022-08-01T22:50:00.086Z,20.0
2022-08-01T23:00:00.113Z,19.9
2022-08-01T23:10:00.150Z,19.7
2022-08-01T23:20:00.131Z,19.7
2022-08-01T23:30:00.102Z,19.6
2022-08-01T23:40:00.130Z,19.6
2022-08-01T23:50:00.130Z,19.7
